»·PEaware :: N9347S KPSP-KWHP

N9347S :: KPSP-KWHP

FLIGHT INFORMATION

Flight Status: Arrived
Operator: Privately registered:
United States
More flights under this callsign
Pilot: James V. (39524)
Aircraft: BEECH AIRCRAFT BARON
(BE58)
More flights by this aircraft type
Origin: KPSP Palm Springs Intl
United States
Destination: KWHP Whiteman
United States
More flights between these airports :: More routes between these airports
Route:
File this flight plan on PilotEdge
Remarks:
Altitude:
(Current/Filed)
6,500ft
Speed:
(Current/Filed)
0kts
Departed: 30-Jul-23 09:16 AM
Arrived: 30-Jul-23 09:54 AM
Distance/Time
Traveled:
98nm/0:38
Distance/Time
To Go:
Arrived

Flight Plot

Page will automatically refresh every two minutes.

Flight plan parsing failed; only flown route is shown


Map Options




Map Legend


Flown Route
Filed Route
Departure Airport
Arrival Airport
Navaid (VOR, NDB)
Fix

Horizontal Profiles

Position Reports

Time Latitude Longitude Heading Altitude Ground
Speed
30-Jul-23 08:56 33.829022 -116.510971 269 481ft 0kts
30-Jul-23 08:57 33.829022 -116.510971 269 481ft 0kts
30-Jul-23 08:58 33.829022 -116.510971 269 481ft 0kts
30-Jul-23 08:59 33.829022 -116.510971 269 481ft 0kts
30-Jul-23 09:00 33.829022 -116.510971 269 481ft 0kts
30-Jul-23 09:01 33.829022 -116.510971 269 481ft 0kts
30-Jul-23 09:02 33.829022 -116.510971 269 481ft 0kts
30-Jul-23 09:03 33.829022 -116.510971 269 481ft 0kts
30-Jul-23 09:04 33.829022 -116.510971 269 481ft 0kts
30-Jul-23 09:05 33.829022 -116.510971 269 481ft 0kts
30-Jul-23 09:06 33.829022 -116.510971 269 481ft 0kts
30-Jul-23 09:07 33.828681 -116.510797 115 481ft 6kts
30-Jul-23 09:08 33.828041 -116.508272 143 481ft 9kts
30-Jul-23 09:09 33.825037 -116.505624 142 481ft 11kts
30-Jul-23 09:10 33.821583 -116.502514 141 481ft 18kts
30-Jul-23 09:11 33.818500 -116.499270 92 481ft 10kts
30-Jul-23 09:12 33.818496 -116.499159 91 481ft 0kts
30-Jul-23 09:13 33.818496 -116.499159 91 481ft 0kts
30-Jul-23 09:14 33.818489 -116.498525 83 481ft 11kts
30-Jul-23 09:15 33.827684 -116.505665 325 590ft 95kts
30-Jul-23 09:16 33.853804 -116.532127 318 1693ft 129kts
30-Jul-23 09:17 33.876249 -116.565254 302 3143ft 130kts
30-Jul-23 09:18 33.891156 -116.605395 291 4473ft 134kts
30-Jul-23 09:19 33.904040 -116.648187 291 5468ft 137kts
30-Jul-23 09:20 33.910996 -116.692524 250 6263ft 141kts
30-Jul-23 09:21 33.904724 -116.741207 279 6594ft 166kts
30-Jul-23 09:22 33.920235 -116.797400 288 6551ft 183kts
30-Jul-23 09:23 33.938416 -116.855833 288 6615ft 191kts
30-Jul-23 09:24 33.957964 -116.918669 288 6564ft 209kts
30-Jul-23 09:25 33.978282 -116.984502 287 6540ft 208kts
30-Jul-23 09:26 33.998569 -117.050137 287 6536ft 209kts
30-Jul-23 09:27 34.018971 -117.116475 293 6538ft 211kts
30-Jul-23 09:28 34.039267 -117.182566 293 6531ft 212kts
30-Jul-23 09:29 34.059764 -117.249418 286 6522ft 211kts
30-Jul-23 09:30 34.080029 -117.315778 286 6526ft 211kts
30-Jul-23 09:31 34.100367 -117.382471 286 6529ft 212kts
30-Jul-23 09:32 34.120437 -117.448408 286 6522ft 211kts
30-Jul-23 09:33 34.140662 -117.515017 286 6520ft 211kts
30-Jul-23 09:34 34.160620 -117.580895 286 6517ft 210kts
30-Jul-23 09:35 34.180867 -117.647884 286 6521ft 210kts
30-Jul-23 09:36 34.201078 -117.714915 286 6532ft 210kts
30-Jul-23 09:37 34.221115 -117.781514 286 6544ft 210kts
30-Jul-23 09:38 34.241004 -117.847739 286 6553ft 210kts
30-Jul-23 09:39 34.260626 -117.913263 286 6546ft 211kts
30-Jul-23 09:40 34.280695 -117.980419 286 6545ft 213kts
30-Jul-23 09:41 34.300823 -118.047810 286 6564ft 215kts
30-Jul-23 09:42 34.320851 -118.115174 285 6550ft 210kts
30-Jul-23 09:43 34.339976 -118.183258 289 6475ft 210kts
30-Jul-23 09:44 34.358598 -118.247577 291 5629ft 200kts
30-Jul-23 09:45 34.391674 -118.302143 307 4731ft 188kts
30-Jul-23 09:46 34.417281 -118.356152 294 3863ft 176kts
30-Jul-23 09:47 34.425809 -118.415065 270 3924ft 182kts
30-Jul-23 09:48 34.408873 -118.469527 196 3884ft 180kts
30-Jul-23 09:49 34.362441 -118.490761 194 3699ft 180kts
30-Jul-23 09:50 34.321529 -118.478893 140 2926ft 146kts
30-Jul-23 09:51 34.298395 -118.454559 137 1980ft 111kts
30-Jul-23 09:52 34.274738 -118.430042 135 1473ft 96kts
30-Jul-23 09:53 34.258090 -118.412048 131 1004ft 21kts
30-Jul-23 09:54 34.257997 -118.411460 24 1004ft 0kts
30-Jul-23 09:55 34.258457 -118.411775 319 1004ft 13kts
30-Jul-23 09:56 34.259842 -118.412185 313 1004ft 0kts
30-Jul-23 09:57 34.259842 -118.412185 313 1004ft 0kts
30-Jul-23 09:58 34.259842 -118.412185 313 1004ft 0kts
30-Jul-23 09:59 34.259842 -118.412185 313 1004ft 0kts
30-Jul-23 10:00 34.259842 -118.412185 313 1004ft 0kts

Navigation Log

Ident Type
Flight plan parsing failed, navigation log unavailable